Time;durP1;ratioP1;P1;durP2;ratioP2;P2;SDS_P1;SDS_P2;PMS_P1;PMS_P2;Temp;Humidity;BMP_temperature;BMP_pressure;BME280_temperature;BME280_humidity;BME280_pressure;Samples;Min_cycle;Max_cycle;Signal;HPM_P1;HPM_P2
2023/12/21 00:00:11;;;;;;;3.17;0.90;;;;;;;16.20;60.70;100410.44;10540499;28;20167;-52
2023/12/21 00:05:11;;;;;;;2.22;0.80;;;;;;;16.20;60.81;100405.09;10539854;28;20020;-53
2023/12/21 00:10:12;;;;;;;4.15;1.02;;;;;;;16.20;61.16;100405.88;10539579;28;20036;-54
2023/12/21 00:15:13;;;;;;;4.05;0.90;;;;;;;16.16;61.67;100385.34;10539749;28;20024;-54
2023/12/21 00:20:13;;;;;;;2.15;0.90;;;;;;;16.16;61.92;100378.13;10539555;28;20020;-54
2023/12/21 00:25:14;;;;;;;3.50;1.00;;;;;;;16.16;61.00;100377.31;10538961;28;20111;-52
2023/12/21 00:30:14;;;;;;;2.70;1.10;;;;;;;16.15;61.55;100365.03;10538482;28;20034;-52
2023/12/21 00:35:14;;;;;;;3.75;1.27;;;;;;;16.14;61.57;100353.53;10538470;28;20026;-54
2023/12/21 00:40:15;;;;;;;2.80;1.50;;;;;;;16.13;61.27;100340.47;10538752;28;20097;-54
2023/12/21 00:45:15;;;;;;;2.23;0.97;;;;;;;16.12;61.90;100337.00;10529552;28;20327;-55
2023/12/21 00:50:15;;;;;;;2.60;0.70;;;;;;;16.11;60.69;100338.06;10538277;28;20362;-53
2023/12/21 00:55:16;;;;;;;2.92;1.17;;;;;;;16.11;62.03;100321.25;10537838;28;20036;-52
2023/12/21 01:00:17;;;;;;;2.60;0.80;;;;;;;16.09;60.89;100306.25;10519989;28;20101;-54
2023/12/21 01:05:18;;;;;;;1.58;0.90;;;;;;;16.07;61.59;100292.38;10537359;28;20024;-51
2023/12/21 01:10:18;;;;;;;1.77;0.90;;;;;;;16.07;61.45;100275.53;10537204;28;20036;-54
2023/12/21 01:15:19;;;;;;;2.23;0.90;;;;;;;16.04;61.82;100273.44;10536893;28;20035;-52
2023/12/21 01:20:19;;;;;;;2.00;0.77;;;;;;;16.02;61.39;100275.63;10537042;28;20273;-54
2023/12/21 01:25:19;;;;;;;3.17;0.87;;;;;;;16.03;61.49;100272.66;10536530;28;20344;-53
2023/12/21 01:30:21;;;;;;;1.93;0.77;;;;;;;16.01;62.17;100266.81;10536780;28;20346;-53
2023/12/21 01:35:21;;;;;;;3.33;1.20;;;;;;;16.00;61.64;100248.38;10536135;28;20270;-52
2023/12/21 01:40:23;;;;;;;2.10;1.00;;;;;;;16.01;61.37;100242.72;10535238;28;20032;-53
2023/12/21 01:45:23;;;;;;;3.47;0.90;;;;;;;15.99;61.46;100230.75;10527581;28;20281;-54
2023/12/21 01:50:25;;;;;;;1.85;0.63;;;;;;;15.97;61.32;100222.19;10535910;28;20387;-53
2023/12/21 01:55:27;;;;;;;2.13;0.98;;;;;;;15.97;61.32;100228.34;10535536;28;20375;-53
2023/12/21 02:00:28;;;;;;;3.60;1.52;;;;;;;15.97;61.79;100236.34;10517677;28;20074;-53
2023/12/21 02:05:28;;;;;;;2.83;0.95;;;;;;;15.95;61.78;100241.19;10535146;28;20421;-52
2023/12/21 02:10:29;;;;;;;3.63;1.17;;;;;;;15.93;61.55;100240.69;10534807;28;20044;-52
2023/12/21 02:15:29;;;;;;;2.40;0.70;;;;;;;15.94;62.10;100214.75;10534664;28;20281;-53
2023/12/21 02:20:30;;;;;;;1.93;1.00;;;;;;;15.93;60.63;100208.63;10534725;28;20291;-53
2023/12/21 02:25:31;;;;;;;3.78;1.10;;;;;;;15.91;61.05;100200.09;10516155;28;20292;-53
2023/12/21 02:30:31;;;;;;;2.30;0.60;;;;;;;15.92;61.90;100182.16;10516353;28;20066;-50
2023/12/21 02:35:31;;;;;;;3.58;1.02;;;;;;;15.91;61.21;100169.91;10534073;28;20400;-53
2023/12/21 02:40:32;;;;;;;4.20;0.80;;;;;;;15.90;61.45;100155.72;10534133;28;20035;-53
2023/12/21 02:45:32;;;;;;;3.85;1.15;;;;;;;15.89;61.63;100162.16;10523585;28;20276;-52
2023/12/21 02:50:32;;;;;;;3.60;0.80;;;;;;;15.88;61.53;100146.41;10522974;28;20662;-54
2023/12/21 02:55:35;;;;;;;2.40;1.00;;;;;;;15.88;60.85;100159.78;10533119;28;20285;-53
2023/12/21 03:00:35;;;;;;;1.42;0.65;;;;;;;15.86;61.27;100124.50;10533755;28;20285;-54
2023/12/21 03:05:36;;;;;;;2.67;1.00;;;;;;;15.84;61.43;100122.13;10532897;28;20027;-54
2023/12/21 03:10:36;;;;;;;2.40;1.00;;;;;;;15.86;61.50;100101.22;10533657;28;20282;-54
2023/12/21 03:15:37;;;;;;;2.93;1.00;;;;;;;15.85;61.33;100082.81;10532862;28;20024;-54
2023/12/21 03:20:38;;;;;;;2.45;0.82;;;;;;;15.82;61.47;100064.69;10533395;28;20266;-54
2023/12/21 03:25:38;;;;;;;2.60;0.82;;;;;;;15.83;61.48;100043.00;10532775;28;20387;-54
2023/12/21 03:30:39;;;;;;;2.17;0.97;;;;;;;15.81;61.68;100037.19;10533033;28;20051;-53
2023/12/21 03:35:39;;;;;;;4.07;1.00;;;;;;;15.81;61.10;100033.72;10532277;28;20278;-55
2023/12/21 03:40:39;;;;;;;4.47;1.33;;;;;;;15.89;61.52;100014.34;10532700;28;20422;-52
2023/12/21 03:45:40;;;;;;;2.53;1.17;;;;;;;16.07;59.95;100029.50;10531943;28;20274;-54
2023/12/21 03:50:40;;;;;;;3.05;0.82;;;;;;;16.50;59.44;100016.66;10532707;28;20507;-54
2023/12/21 03:55:41;;;;;;;6.57;1.13;;;;;;;16.83;59.41;100012.00;10513936;28;20035;-52
2023/12/21 04:00:41;;;;;;;2.20;0.80;;;;;;;17.16;58.21;99995.72;10532597;28;20297;-53
2023/12/21 04:05:41;;;;;;;1.13;0.50;;;;;;;17.37;57.60;99998.72;10535660;28;20360;-53
2023/12/21 04:10:42;;;;;;;1.93;0.67;;;;;;;17.57;56.21;99965.28;10540039;28;20289;-54
2023/12/21 04:15:42;;;;;;;1.85;0.65;;;;;;;17.69;56.23;99966.31;10539583;28;20797;-54
2023/12/21 04:20:42;;;;;;;2.40;1.07;;;;;;;17.84;55.98;99951.72;10539345;28;20036;-53
2023/12/21 04:25:43;;;;;;;3.10;0.73;;;;;;;17.92;55.44;99921.47;10538972;28;20286;-54
2023/12/21 04:30:43;;;;;;;4.20;0.77;;;;;;;18.05;55.89;99901.81;10538926;28;20626;-53
2023/12/21 04:35:44;;;;;;;2.50;0.97;;;;;;;18.16;55.67;99885.41;10525271;28;20281;-53
2023/12/21 04:40:44;;;;;;;1.10;0.68;;;;;;;18.15;55.05;99879.25;10511265;28;20764;-54
2023/12/21 04:45:45;;;;;;;5.63;1.10;;;;;;;18.14;55.49;99844.69;10511432;28;20027;-54
2023/12/21 04:50:46;;;;;;;4.47;0.82;;;;;;;18.15;54.45;99836.34;10493284;28;20289;-54
2023/12/21 04:55:48;;;;;;;3.15;1.27;;;;;;;18.11;54.66;99835.38;10537856;28;20028;-52
2023/12/21 05:00:50;;;;;;;2.72;0.80;;;;;;;18.08;56.04;99846.72;10537891;28;20101;-53
2023/12/21 05:05:51;;;;;;;2.67;1.00;;;;;;;18.07;55.33;99837.88;10522817;28;20028;-54
2023/12/21 05:10:51;;;;;;;2.93;0.80;;;;;;;17.96;55.37;99825.88;10508878;28;20036;-54
2023/12/21 05:15:51;;;;;;;2.70;1.20;;;;;;;17.98;55.48;99842.44;10508240;28;20355;-54
2023/12/21 05:20:52;;;;;;;3.08;0.90;;;;;;;17.97;56.16;99808.69;10512378;28;20024;-52
2023/12/21 05:25:52;;;;;;;2.25;1.20;;;;;;;17.95;56.05;99786.75;10513992;28;20035;-53
2023/12/21 05:30:52;;;;;;;4.17;1.60;;;;;;;17.92;55.62;99798.09;10511071;28;20073;-54
2023/12/21 05:35:53;;;;;;;2.50;1.00;;;;;;;17.92;56.24;99789.28;10509353;28;20282;-53
2023/12/21 05:40:54;;;;;;;3.45;0.93;;;;;;;17.92;56.33;99808.06;10520821;28;20784;-54
2023/12/21 05:45:54;;;;;;;3.13;0.63;;;;;;;17.89;56.20;99797.94;10527458;28;20433;-52
2023/12/21 05:50:54;;;;;;;1.80;1.20;;;;;;;17.87;56.90;99776.00;10519897;28;20028;-52
2023/12/21 05:55:54;;;;;;;4.00;1.20;;;;;;;17.83;56.45;99794.63;10517015;28;20748;-53
2023/12/21 06:00:55;;;;;;;4.10;1.00;;;;;;;17.78;56.42;99789.41;10534037;28;20270;-54
2023/12/21 06:05:55;;;;;;;5.82;1.35;;;;;;;17.73;57.92;99781.50;10531558;28;20282;-52
2023/12/21 06:10:56;;;;;;;6.45;1.10;;;;;;;17.83;56.20;99773.94;10508356;28;20032;-52
2023/12/21 06:15:56;;;;;;;11.47;1.90;;;;;;;17.91;57.59;99764.34;10507262;28;20028;-53
2023/12/21 06:20:56;;;;;;;6.40;1.33;;;;;;;17.90;57.21;99729.81;10527372;28;20271;-51
2023/12/21 06:25:57;;;;;;;13.60;2.45;;;;;;;18.00;57.85;99737.53;10531097;28;20285;-49
2023/12/21 06:30:58;;;;;;;7.40;1.45;;;;;;;18.04;58.25;99736.59;10530558;28;20049;-51
2023/12/21 06:35:58;;;;;;;9.27;1.90;;;;;;;18.00;58.40;99734.88;10529735;28;20032;-53
2023/12/21 06:40:59;;;;;;;10.50;1.97;;;;;;;17.90;58.52;99725.22;10529865;28;20270;-54
2023/12/21 06:46:01;;;;;;;15.37;2.50;;;;;;;17.82;59.06;99694.63;10516102;28;20288;-53
2023/12/21 06:51:02;;;;;;;7.82;1.92;;;;;;;17.97;58.52;99676.47;10517368;28;20335;-53
2023/12/21 06:56:02;;;;;;;9.13;1.73;;;;;;;17.95;58.75;99670.63;10525614;28;20534;-52
2023/12/21 07:01:02;;;;;;;11.57;3.00;;;;;;;17.70;58.38;99654.22;10517334;28;20367;-53
2023/12/21 07:06:03;;;;;;;9.68;1.70;;;;;;;17.87;57.92;99637.34;10531516;28;20391;-54
2023/12/21 07:11:03;;;;;;;13.63;2.42;;;;;;;17.90;58.07;99617.16;10529742;28;20044;-52
2023/12/21 07:16:04;;;;;;;17.52;1.90;;;;;;;17.68;58.50;99600.13;10529846;28;20379;-52
2023/12/21 07:21:05;;;;;;;7.43;1.67;;;;;;;17.70;58.74;99589.09;10529752;28;20023;-53
2023/12/21 07:26:06;;;;;;;9.52;2.45;;;;;;;17.59;58.89;99590.50;10529316;28;20026;-54
2023/12/21 07:31:06;;;;;;;12.32;2.70;;;;;;;17.49;59.52;99587.03;10511468;28;20035;-53
2023/12/21 07:36:07;;;;;;;5.77;1.50;;;;;;;17.39;59.48;99590.00;10511664;28;20427;-54
2023/12/21 07:41:08;;;;;;;12.82;2.22;;;;;;;17.30;58.92;99580.41;10508132;28;20332;-54
2023/12/21 07:46:08;;;;;;;7.63;2.17;;;;;;;17.24;60.09;99569.03;10515825;28;20028;-52
2023/12/21 07:51:10;;;;;;;9.73;2.47;;;;;;;17.18;59.69;99546.22;10517269;28;20039;-53
2023/12/21 07:56:11;;;;;;;6.05;1.83;;;;;;;17.16;59.81;99551.06;10513038;28;20113;-53
2023/12/21 08:01:11;;;;;;;4.63;1.57;;;;;;;17.10;59.70;99555.00;10536933;28;20089;-52
2023/12/21 08:06:21;;;;;;;9.00;2.30;;;;;;;17.03;60.69;99562.72;10536291;28;20397;-54
2023/12/21 08:11:21;;;;;;;12.00;1.98;;;;;;;16.99;60.20;99549.16;10536518;28;20327;-53
2023/12/21 08:16:22;;;;;;;13.10;2.33;;;;;;;16.94;59.39;99539.41;10538932;28;20677;-54
2023/12/21 08:21:22;;;;;;;9.57;1.73;;;;;;;16.91;60.02;99540.00;10538894;28;20270;-54
2023/12/21 08:26:22;;;;;;;6.10;2.60;;;;;;;16.88;61.01;99553.25;10520954;28;20281;-55
2023/12/21 08:31:26;;;;;;;7.60;1.73;;;;;;;16.83;61.58;99523.94;10537998;28;20839;-54
2023/12/21 08:36:26;;;;;;;8.77;1.63;;;;;;;16.78;60.29;99511.47;10519052;28;20289;-53
2023/12/21 08:41:27;;;;;;;5.00;1.70;;;;;;;16.76;60.39;99499.50;10525057;28;20503;-53
2023/12/21 08:46:27;;;;;;;12.05;2.92;;;;;;;16.74;60.15;99507.06;10526874;28;20281;-52
2023/12/21 08:51:28;;;;;;;4.40;1.20;;;;;;;16.72;60.95;99498.56;10532516;28;20024;-52
2023/12/21 08:56:28;;;;;;;7.40;1.03;;;;;;;16.66;61.05;99493.31;10536957;28;20277;-54
2023/12/21 09:01:30;;;;;;;4.13;1.57;;;;;;;16.63;61.09;99479.78;10536331;28;20286;-54
2023/12/21 09:06:31;;;;;;;6.80;1.73;;;;;;;16.60;60.57;99467.03;10537361;28;20779;-53
2023/12/21 09:11:31;;;;;;;4.88;1.30;;;;;;;16.58;60.31;99475.38;10536704;28;20039;-53
2023/12/21 09:16:32;;;;;;;6.00;1.60;;;;;;;16.53;61.14;99447.97;10522689;28;20049;-53
2023/12/21 09:21:33;;;;;;;5.07;1.23;;;;;;;16.50;60.71;99436.00;10507646;28;20269;-53
2023/12/21 09:26:33;;;;;;;3.08;1.10;;;;;;;16.50;61.73;99446.72;10513392;28;20290;-54
2023/12/21 09:31:34;;;;;;;4.20;1.23;;;;;;;16.47;61.92;99425.16;10526346;28;20432;-52
2023/12/21 09:36:34;;;;;;;2.83;0.75;;;;;;;16.45;61.95;99419.28;10515100;28;20710;-53
2023/12/21 09:41:34;;;;;;;4.80;1.30;;;;;;;16.40;61.34;99430.94;10532783;28;20406;-51
2023/12/21 09:46:39;;;;;;;5.85;1.38;;;;;;;16.38;61.01;99436.63;10521677;28;20275;-52
2023/12/21 09:51:39;;;;;;;4.60;1.20;;;;;;;16.38;60.91;99427.81;10525088;28;20035;-53
2023/12/21 09:56:40;;;;;;;4.18;1.60;;;;;;;16.35;62.08;99410.50;10506455;28;20030;-53
2023/12/21 10:01:41;;;;;;;2.88;1.35;;;;;;;16.35;60.25;99428.44;10533603;28;20024;-54
2023/12/21 10:06:41;;;;;;;5.03;1.70;;;;;;;16.31;60.87;99432.81;10532178;28;20056;-54
2023/12/21 10:11:42;;;;;;;3.30;0.80;;;;;;;16.31;61.55;99419.44;10528535;28;20278;-53
2023/12/21 10:16:42;;;;;;;3.03;1.17;;;;;;;16.28;60.84;99418.16;10506878;28;20039;-53
2023/12/21 10:21:42;;;;;;;3.83;1.20;;;;;;;16.25;62.05;99426.81;10532461;28;20028;-53
2023/12/21 10:26:46;;;;;;;3.20;1.67;;;;;;;16.25;61.60;99418.81;10533318;28;20705;-54
2023/12/21 10:31:48;;;;;;;6.63;1.50;;;;;;;16.21;60.94;99401.00;10532533;28;20335;-54
2023/12/21 10:36:48;;;;;;;2.88;1.52;;;;;;;16.21;61.45;99387.63;10514243;28;20035;-53
2023/12/21 10:41:49;;;;;;;2.20;0.73;;;;;;;16.17;62.10;99384.78;10510078;28;20024;-53
2023/12/21 10:46:49;;;;;;;3.13;1.30;;;;;;;16.19;60.64;99387.16;10527146;28;20078;-50
2023/12/21 10:51:50;;;;;;;3.63;0.93;;;;;;;16.14;61.82;99374.72;10487201;28;20765;-53
2023/12/21 10:56:51;;;;;;;4.85;1.33;;;;;;;16.17;61.02;99365.28;10532715;28;20035;-50
2023/12/21 11:01:52;;;;;;;2.47;0.85;;;;;;;16.13;61.04;99362.47;10532515;28;20054;-53
2023/12/21 11:06:54;;;;;;;3.42;1.00;;;;;;;16.16;62.55;99377.09;10522719;28;20540;-52
2023/12/21 11:11:57;;;;;;;8.77;1.30;;;;;;;16.19;62.27;99374.56;10531043;28;20395;-52
2023/12/21 11:17:00;;;;;;;9.70;1.02;;;;;;;16.23;62.25;99354.16;10544851;28;20023;-53
2023/12/21 11:22:01;;;;;;;6.72;1.75;;;;;;;16.43;62.65;99376.03;10535630;28;20035;-53
2023/12/21 11:27:01;;;;;;;5.72;0.90;;;;;;;16.62;60.45;99347.09;10527348;28;20433;-51
2023/12/21 11:32:05;;;;;;;2.42;0.80;;;;;;;16.88;60.53;99339.06;10544992;28;20069;-53
2023/12/21 11:37:16;;;;;;;3.38;0.88;;;;;;;17.27;60.00;99331.88;10542105;28;20028;-54
2023/12/21 11:42:19;;;;;;;2.88;0.68;;;;;;;17.65;58.44;99331.91;10526740;28;20051;-53
2023/12/21 11:47:19;;;;;;;2.28;0.63;;;;;;;17.87;57.67;99312.88;10497975;28;20030;-53
2023/12/21 11:52:26;;;;;;;8.32;0.70;;;;;;;17.94;57.14;99317.75;10513091;28;20035;-53
2023/12/21 11:57:28;;;;;;;7.65;1.23;;;;;;;18.02;57.92;99319.59;10523639;28;20024;-52
2023/12/21 12:02:29;;;;;;;3.08;1.00;;;;;;;18.02;56.77;99323.06;10522636;28;20022;-53
2023/12/21 12:07:31;;;;;;;1.30;0.50;;;;;;;18.02;57.44;99328.44;10545530;28;20579;-53
2023/12/21 12:12:31;;;;;;;2.15;0.65;;;;;;;17.99;56.95;99318.31;10545313;28;20376;-53
2023/12/21 12:17:32;;;;;;;2.30;0.60;;;;;;;17.97;57.00;99309.03;10545684;28;20023;-53
2023/12/21 12:22:32;;;;;;;2.67;1.33;;;;;;;17.90;57.09;99296.16;10545309;28;20273;-53
2023/12/21 12:27:33;;;;;;;2.95;0.80;;;;;;;17.91;57.73;99305.78;10539656;28;20277;-53
2023/12/21 12:32:33;;;;;;;2.35;0.68;;;;;;;17.75;58.24;99280.63;10520307;28;20242;-53
2023/12/21 12:37:35;;;;;;;1.73;0.40;;;;;;;17.83;58.17;99304.72;10520540;28;20020;-53
2023/12/21 12:42:35;;;;;;;1.58;0.52;;;;;;;17.87;58.43;99291.44;10528006;28;20024;-53
2023/12/21 12:47:36;;;;;;;2.65;0.40;;;;;;;17.83;56.95;99285.94;10515793;28;20032;-54
2023/12/21 12:52:44;;;;;;;3.42;0.70;;;;;;;17.83;58.11;99269.06;10530722;28;20032;-52
2023/12/21 12:57:48;;;;;;;1.00;0.50;;;;;;;17.83;57.04;99283.25;10495490;28;20033;-54
2023/12/21 13:02:49;;;;;;;1.88;0.50;;;;;;;17.79;58.13;99258.22;10533713;28;20020;-53
2023/12/21 13:07:49;;;;;;;1.63;0.50;;;;;;;17.85;58.04;99279.47;10518967;28;20123;-53
2023/12/21 13:12:49;;;;;;;1.50;0.50;;;;;;;17.85;57.17;99282.16;10518958;28;20350;-53
2023/12/21 13:17:51;;;;;;;2.03;0.50;;;;;;;17.82;58.36;99257.56;10536908;28;20028;-54
2023/12/21 13:22:52;;;;;;;1.20;0.40;;;;;;;17.71;58.78;99272.44;10529637;28;21095;-53
2023/12/21 13:27:52;;;;;;;1.98;0.50;;;;;;;17.74;57.34;99273.69;10531895;28;20032;-52
2023/12/21 13:32:55;;;;;;;1.42;0.30;;;;;;;17.79;58.12;99287.72;10549641;28;20496;-53
2023/12/21 13:37:55;;;;;;;1.63;0.38;;;;;;;17.81;57.71;99300.78;10503845;28;20362;-53
2023/12/21 13:42:56;;;;;;;1.50;0.50;;;;;;;17.68;59.24;99304.47;10496536;28;20031;-54
2023/12/21 13:47:56;;;;;;;3.85;0.60;;;;;;;17.82;57.63;99288.94;10522235;28;20273;-54
2023/12/21 13:52:56;;;;;;;1.40;0.67;;;;;;;17.85;58.87;99306.28;10518017;28;20027;-53
2023/12/21 13:57:57;;;;;;;6.43;0.75;;;;;;;17.80;58.06;99307.25;10525461;28;20691;-53
2023/12/21 14:02:57;;;;;;;2.77;0.70;;;;;;;17.78;58.24;99312.94;10518303;28;20713;-52
2023/12/21 14:07:58;;;;;;;2.20;0.50;;;;;;;17.78;58.44;99296.88;10523106;28;20344;-53
2023/12/21 14:13:00;;;;;;;3.05;0.43;;;;;;;17.81;58.19;99311.50;10513577;28;20288;-53
2023/12/21 14:18:00;;;;;;;4.93;1.27;;;;;;;17.77;58.93;99307.91;10483963;28;20017;-53
2023/12/21 14:23:01;;;;;;;3.37;0.93;;;;;;;17.76;58.07;99295.63;10485353;28;20050;-53
2023/12/21 14:28:01;;;;;;;1.42;0.77;;;;;;;17.74;57.89;99281.72;10518794;28;20296;-53
2023/12/21 14:33:01;;;;;;;4.40;0.77;;;;;;;17.74;59.22;99266.44;10531521;28;20336;-52
2023/12/21 14:38:03;;;;;;;5.78;0.80;;;;;;;17.81;59.18;99311.50;10508971;28;20023;-53
2023/12/21 14:43:03;;;;;;;2.33;0.90;;;;;;;17.73;59.67;99288.22;10513664;28;20471;-52
2023/12/21 14:48:04;;;;;;;3.40;1.13;;;;;;;17.69;58.77;99324.81;10510620;28;20096;-52
2023/12/21 14:53:04;;;;;;;11.68;1.23;;;;;;;17.68;59.96;99324.00;10517005;28;20278;-53
2023/12/21 14:58:04;;;;;;;3.15;0.73;;;;;;;17.57;59.17;99332.72;10507697;28;20475;-52
2023/12/21 15:03:05;;;;;;;3.20;1.13;;;;;;;17.58;59.40;99328.94;10532265;28;20124;-54
2023/12/21 15:08:05;;;;;;;3.78;0.85;;;;;;;17.63;59.66;99326.84;10521862;28;20386;-53
2023/12/21 15:13:08;;;;;;;3.60;0.90;;;;;;;17.62;59.06;99338.69;10527071;28;20020;-54
2023/12/21 15:18:08;;;;;;;4.45;0.80;;;;;;;17.56;59.14;99307.03;10516628;28;20036;-53
2023/12/21 15:23:08;;;;;;;2.67;0.67;;;;;;;17.49;59.18;99320.94;10505556;28;20415;-54
2023/12/21 15:28:09;;;;;;;4.87;0.80;;;;;;;17.47;59.44;99336.56;10503021;28;20278;-54
2023/12/21 15:33:09;;;;;;;8.82;1.17;;;;;;;17.56;58.98;99331.16;10506032;28;20308;-50
2023/12/21 15:38:09;;;;;;;5.43;0.93;;;;;;;17.56;59.92;99328.47;10524920;28;20129;-50
2023/12/21 15:43:09;;;;;;;10.17;1.80;;;;;;;17.61;60.23;99339.78;10521851;28;20281;-51
2023/12/21 15:48:10;;;;;;;5.37;0.97;;;;;;;17.61;60.56;99377.31;10520764;28;20516;-51
2023/12/21 15:53:11;;;;;;;7.10;1.17;;;;;;;17.61;59.32;99400.66;10485254;28;20297;-50
2023/12/21 15:58:11;;;;;;;15.93;2.53;;;;;;;17.61;60.40;99388.03;10491333;28;20029;-48
2023/12/21 16:03:11;;;;;;;6.68;1.30;;;;;;;17.51;61.01;99391.84;10509307;28;20270;-51
2023/12/21 16:08:13;;;;;;;7.43;1.20;;;;;;;17.50;59.82;99371.53;10537938;28;20039;-52
2023/12/21 16:13:13;;;;;;;9.48;2.58;;;;;;;17.63;59.30;99371.63;10524847;28;20408;-50
2023/12/21 16:18:13;;;;;;;9.83;1.47;;;;;;;17.74;60.23;99405.06;10509767;28;20028;-51
2023/12/21 16:23:15;;;;;;;6.28;1.25;;;;;;;17.82;59.58;99377.44;10518752;28;20618;-49
2023/12/21 16:28:15;;;;;;;6.32;1.50;;;;;;;17.88;59.93;99415.56;10507627;28;20051;-50
2023/12/21 16:33:17;;;;;;;6.28;2.75;;;;;;;17.86;64.01;99431.97;10514809;28;21341;-52
2023/12/21 16:38:17;;;;;;;14.00;2.22;;;;;;;17.94;63.32;99423.13;10527656;28;20064;-51
2023/12/21 16:43:17;;;;;;;11.20;2.67;;;;;;;17.97;62.03;99398.31;10503150;28;20061;-51
2023/12/21 16:48:18;;;;;;;12.07;2.73;;;;;;;17.87;62.68;99427.41;10525208;28;20028;-49
2023/12/21 16:53:19;;;;;;;11.18;3.53;;;;;;;17.80;62.62;99431.38;10528251;28;20278;-53
2023/12/21 16:58:21;;;;;;;6.57;1.70;;;;;;;17.74;63.28;99405.06;10537488;28;20039;-51
2023/12/21 17:03:21;;;;;;;11.13;2.47;;;;;;;17.78;62.96;99406.78;10536807;28;20282;-48
2023/12/21 17:08:22;;;;;;;9.63;2.92;;;;;;;17.69;63.31;99434.72;10522595;28;20048;-48
2023/12/21 17:13:22;;;;;;;11.53;2.47;;;;;;;17.62;63.09;99469.25;10526107;28;20372;-48
2023/12/21 17:18:22;;;;;;;15.65;2.42;;;;;;;17.52;63.11;99578.38;10517492;28;20283;-47
2023/12/21 17:23:23;;;;;;;5.67;2.23;;;;;;;17.48;63.48;99627.53;10518952;28;20058;-49
2023/12/21 17:28:24;;;;;;;12.90;2.47;;;;;;;17.40;63.65;99629.09;10519541;28;20281;-48
2023/12/21 17:33:25;;;;;;;8.63;2.00;;;;;;;17.34;62.93;99634.94;10505049;28;20286;-50
2023/12/21 17:38:25;;;;;;;7.28;2.42;;;;;;;17.37;63.08;99612.88;10499996;28;20020;-51
2023/12/21 17:43:26;;;;;;;11.30;3.50;;;;;;;17.28;63.67;99571.88;10507591;28;20103;-49
2023/12/21 17:48:26;;;;;;;7.05;2.53;;;;;;;17.28;63.50;99561.94;10514341;28;20666;-48
2023/12/21 17:53:26;;;;;;;8.23;1.53;;;;;;;17.28;62.01;99571.88;10521767;28;20460;-51
2023/12/21 17:58:27;;;;;;;7.78;1.60;;;;;;;17.25;62.14;99582.13;10499576;28;20283;-50
2023/12/21 18:03:28;;;;;;;7.00;1.73;;;;;;;17.24;62.39;99587.78;10504771;28;20028;-51
2023/12/21 18:08:28;;;;;;;9.57;1.88;;;;;;;17.23;62.93;99594.25;10488442;28;20328;-52
2023/12/21 18:13:29;;;;;;;4.75;1.45;;;;;;;17.25;62.77;99624.97;10508630;28;20784;-52
2023/12/21 18:18:29;;;;;;;11.30;2.07;;;;;;;17.35;62.18;99623.13;10510493;28;20547;-49
2023/12/21 18:23:29;;;;;;;9.87;2.83;;;;;;;17.41;62.63;99636.06;10523667;28;20281;-51
2023/12/21 18:28:29;;;;;;;8.77;2.00;;;;;;;17.43;62.20;99644.56;10533984;28;20772;-49
2023/12/21 18:33:30;;;;;;;6.07;1.73;;;;;;;17.42;62.37;99636.84;10533955;28;20380;-48
2023/12/21 18:38:30;;;;;;;13.05;2.25;;;;;;;17.50;60.48;99601.22;10533562;28;20339;-52
2023/12/21 18:43:31;;;;;;;7.53;1.73;;;;;;;17.52;61.20;99599.00;10526879;28;20063;-51
2023/12/21 18:48:31;;;;;;;5.73;1.53;;;;;;;17.54;61.31;99628.97;10533120;28;20285;-49
2023/12/21 18:53:31;;;;;;;5.90;1.47;;;;;;;17.53;60.27;99659.56;10515379;28;20301;-51
2023/12/21 18:58:32;;;;;;;11.48;2.15;;;;;;;17.52;60.84;99657.97;10533082;28;20270;-53
2023/12/21 19:03:32;;;;;;;5.85;1.67;;;;;;;17.53;61.73;99655.00;10533157;28;20464;-52
2023/12/21 19:08:32;;;;;;;7.90;1.80;;;;;;;17.57;60.67;99675.78;10532675;28;20395;-48
2023/12/21 19:13:33;;;;;;;4.43;1.37;;;;;;;17.52;61.02;99682.06;10531839;28;20285;-53
2023/12/21 19:18:34;;;;;;;7.70;1.75;;;;;;;17.56;61.37;99688.41;10531823;28;20319;-50
2023/12/21 19:23:34;;;;;;;6.83;2.00;;;;;;;17.54;60.84;99693.31;10532192;28;20035;-49
2023/12/21 19:28:35;;;;;;;9.33;1.30;;;;;;;17.53;60.81;99689.84;10531292;28;20020;-50
2023/12/21 19:33:35;;;;;;;3.72;0.98;;;;;;;17.57;60.44;99699.91;10514263;28;20285;-53
2023/12/21 19:38:35;;;;;;;6.75;1.75;;;;;;;17.56;60.85;99690.31;10540700;28;20039;-51
2023/12/21 19:43:35;;;;;;;3.77;1.20;;;;;;;17.56;59.57;99704.50;10533296;28;20035;-52
2023/12/21 19:48:37;;;;;;;6.17;1.30;;;;;;;17.59;60.91;99724.50;10540308;28;20288;-51
2023/12/21 19:53:38;;;;;;;4.70;1.30;;;;;;;17.61;61.04;99739.19;10540457;28;20286;-48
2023/12/21 19:58:39;;;;;;;5.97;1.30;;;;;;;17.61;59.39;99739.19;10540022;28;20046;-52
2023/12/21 20:03:39;;;;;;;4.28;1.20;;;;;;;17.61;60.22;99739.19;10539214;28;20039;-53
2023/12/21 20:08:40;;;;;;;5.97;1.30;;;;;;;17.50;59.70;99727.97;10538348;28;20063;-49
2023/12/21 20:13:40;;;;;;;3.92;1.02;;;;;;;17.49;60.08;99720.22;10539684;28;20292;-52
2023/12/21 20:18:41;;;;;;;3.27;1.37;;;;;;;17.41;61.06;99724.50;10539309;28;20032;-52
2023/12/21 20:23:47;;;;;;;6.85;1.75;;;;;;;17.36;60.22;99724.63;10538763;28;20274;-50
2023/12/21 20:28:48;;;;;;;3.95;1.23;;;;;;;17.31;61.45;99737.38;10538302;28;20521;-51
2023/12/21 20:33:49;;;;;;;3.58;1.05;;;;;;;17.25;61.37;99734.03;10530502;28;20032;-49
2023/12/21 20:38:49;;;;;;;4.47;1.02;;;;;;;17.22;61.18;99735.44;10511524;28;20617;-52
2023/12/21 20:43:50;;;;;;;2.67;1.20;;;;;;;17.19;61.36;99759.41;10513059;28;20071;-50
2023/12/21 20:48:50;;;;;;;5.07;1.30;;;;;;;17.13;61.65;99741.88;10511052;28;20282;-51
2023/12/21 20:53:50;;;;;;;3.23;0.93;;;;;;;17.07;60.46;99751.16;10538224;28;20364;-52
2023/12/21 20:58:50;;;;;;;3.90;1.33;;;;;;;17.06;61.34;99784.38;10532432;28;20316;-51
2023/12/21 21:03:51;;;;;;;2.97;1.10;;;;;;;17.02;61.47;99839.66;10529490;28;20277;-51
2023/12/21 21:08:51;;;;;;;2.40;0.80;;;;;;;16.94;62.10;99815.19;10536955;28;20296;-53
2023/12/21 21:13:52;;;;;;;3.85;1.38;;;;;;;16.92;62.40;99830.75;10537143;28;20290;-53
2023/12/21 21:18:53;;;;;;;4.32;1.80;;;;;;;16.90;61.68;99826.81;10535846;28;20024;-53
2023/12/21 21:23:53;;;;;;;3.80;0.70;;;;;;;16.87;61.47;99828.22;10536986;28;20387;-52
2023/12/21 21:28:55;;;;;;;2.87;0.70;;;;;;;16.85;60.88;99934.03;10536119;28;20035;-53
2023/12/21 21:33:55;;;;;;;1.75;1.02;;;;;;;16.80;62.23;99897.44;10536599;28;20297;-52
2023/12/21 21:38:56;;;;;;;2.83;0.83;;;;;;;16.76;62.11;99877.75;10535575;28;20403;-53
2023/12/21 21:43:56;;;;;;;1.98;0.98;;;;;;;16.72;62.54;99849.22;10528188;28;20276;-50
2023/12/21 21:48:56;;;;;;;2.00;0.90;;;;;;;16.70;61.69;99854.88;10535696;28;20565;-49
2023/12/21 21:53:58;;;;;;;2.65;0.80;;;;;;;16.65;62.79;99862.97;10517646;28;20285;-52
2023/12/21 21:59:00;;;;;;;2.85;1.65;;;;;;;16.62;62.11;99877.75;10534076;28;20058;-52
2023/12/21 22:04:01;;;;;;;5.63;1.27;;;;;;;16.61;62.52;99859.34;10535314;28;20038;-53
2023/12/21 22:09:01;;;;;;;2.17;0.87;;;;;;;16.56;61.24;99832.69;10534392;28;20040;-53
2023/12/21 22:14:02;;;;;;;2.40;0.80;;;;;;;16.56;62.63;99848.72;10534730;28;20289;-52
2023/12/21 22:19:04;;;;;;;1.95;0.65;;;;;;;16.53;62.28;99863.50;10534333;28;20313;-53
2023/12/21 22:24:05;;;;;;;5.78;1.23;;;;;;;16.53;61.62;99866.19;10516062;28;20438;-52
2023/12/21 22:29:05;;;;;;;1.77;0.70;;;;;;;16.49;61.60;99859.09;10533781;28;20059;-50
2023/12/21 22:34:06;;;;;;;2.95;1.27;;;;;;;16.46;61.67;99870.41;10520087;28;20031;-51
2023/12/21 22:39:06;;;;;;;3.25;1.42;;;;;;;16.44;62.39;99881.38;10533682;28;20459;-53
2023/12/21 22:44:06;;;;;;;2.67;0.90;;;;;;;16.43;62.69;99895.06;10533928;28;20039;-49
2023/12/21 22:49:07;;;;;;;4.57;1.07;;;;;;;16.38;62.44;99915.47;10519770;28;20335;-51
2023/12/21 22:54:08;;;;;;;1.63;0.60;;;;;;;16.38;62.57;99920.03;10533650;28;20655;-50
2023/12/21 22:59:08;;;;;;;2.80;0.85;;;;;;;16.38;62.83;99920.03;10533059;28;20267;-52
2023/12/21 23:04:09;;;;;;;2.63;0.80;;;;;;;16.36;61.62;99922.22;10533347;28;20027;-51
2023/12/21 23:09:10;;;;;;;2.23;1.00;;;;;;;16.34;62.75;99919.06;10531965;28;20052;-51
2023/12/21 23:14:10;;;;;;;2.35;0.68;;;;;;;16.32;62.21;99943.41;10533192;28;20294;-50